sensor_id;sensor_type;location;lat;lon;timestamp;P1;durP1;ratioP1;P2;durP2;ratioP2
59960;SDS011;55902;-37.980;-63.602;2022-10-17T00:01:09;8.63;;;1.50;;
59960;SDS011;55902;-37.980;-63.602;2022-10-17T00:03:37;8.95;;;1.42;;
59960;SDS011;55902;-37.980;-63.602;2022-10-17T00:06:06;6.40;;;1.40;;
59960;SDS011;55902;-37.980;-63.602;2022-10-17T00:08:35;9.90;;;1.60;;
59960;SDS011;55902;-37.980;-63.602;2022-10-17T00:11:06;6.95;;;1.60;;
59960;SDS011;55902;-37.980;-63.602;2022-10-17T00:13:38;5.25;;;1.40;;
59960;SDS011;55902;-37.980;-63.602;2022-10-17T00:16:05;6.45;;;1.50;;
59960;SDS011;55902;-37.980;-63.602;2022-10-17T00:18:33;4.50;;;1.35;;
59960;SDS011;55902;-37.980;-63.602;2022-10-17T00:21:21;3.13;;;1.40;;
59960;SDS011;55902;-37.980;-63.602;2022-10-17T00:23:50;4.53;;;1.40;;
59960;SDS011;55902;-37.980;-63.602;2022-10-17T00:26:18;7.57;;;1.65;;
59960;SDS011;55902;-37.980;-63.602;2022-10-17T00:28:52;3.25;;;1.52;;
59960;SDS011;55902;-37.980;-63.602;2022-10-17T00:31:25;6.78;;;1.45;;
59960;SDS011;55902;-37.980;-63.602;2022-10-17T00:33:52;3.33;;;1.40;;
59960;SDS011;55902;-37.980;-63.602;2022-10-17T00:36:20;7.00;;;1.80;;
59960;SDS011;55902;-37.980;-63.602;2022-10-17T00:38:51;4.53;;;1.90;;
59960;SDS011;55902;-37.980;-63.602;2022-10-17T00:41:21;6.78;;;2.00;;
59960;SDS011;55902;-37.980;-63.602;2022-10-17T00:46:33;4.65;;;1.70;;
59960;SDS011;55902;-37.980;-63.602;2022-10-17T00:49:03;6.32;;;2.30;;
59960;SDS011;55902;-37.980;-63.602;2022-10-17T00:51:46;6.60;;;2.35;;
59960;SDS011;55902;-37.980;-63.602;2022-10-17T00:54:18;8.32;;;2.22;;
59960;SDS011;55902;-37.980;-63.602;2022-10-17T00:56:49;8.00;;;2.38;;
59960;SDS011;55902;-37.980;-63.602;2022-10-17T00:59:19;7.32;;;1.80;;
59960;SDS011;55902;-37.980;-63.602;2022-10-17T01:01:50;8.60;;;2.20;;
59960;SDS011;55902;-37.980;-63.602;2022-10-17T01:04:44;4.65;;;1.88;;
59960;SDS011;55902;-37.980;-63.602;2022-10-17T01:07:14;8.02;;;1.80;;
59960;SDS011;55902;-37.980;-63.602;2022-10-17T01:09:44;5.90;;;2.20;;
59960;SDS011;55902;-37.980;-63.602;2022-10-17T01:18:16;5.20;;;2.70;;
59960;SDS011;55902;-37.980;-63.602;2022-10-17T01:26:32;3.25;;;1.70;;
59960;SDS011;55902;-37.980;-63.602;2022-10-17T01:32:27;7.47;;;1.63;;
59960;SDS011;55902;-37.980;-63.602;2022-10-17T01:37:54;8.18;;;1.52;;
59960;SDS011;55902;-37.980;-63.602;2022-10-17T01:40:41;12.45;;;1.73;;
59960;SDS011;55902;-37.980;-63.602;2022-10-17T01:43:17;6.13;;;1.60;;
59960;SDS011;55902;-37.980;-63.602;2022-10-17T01:45:57;5.18;;;1.63;;
59960;SDS011;55902;-37.980;-63.602;2022-10-17T01:48:46;4.95;;;1.52;;
59960;SDS011;55902;-37.980;-63.602;2022-10-17T01:51:20;7.07;;;1.88;;
59960;SDS011;55902;-37.980;-63.602;2022-10-17T01:54:03;5.93;;;1.60;;
59960;SDS011;55902;-37.980;-63.602;2022-10-17T01:56:32;4.68;;;1.70;;
59960;SDS011;55902;-37.980;-63.602;2022-10-17T02:01:56;8.50;;;1.80;;
59960;SDS011;55902;-37.980;-63.602;2022-10-17T02:04:25;6.03;;;1.80;;
59960;SDS011;55902;-37.980;-63.602;2022-10-17T02:06:52;9.20;;;1.85;;
59960;SDS011;55902;-37.980;-63.602;2022-10-17T02:09:21;5.07;;;1.67;;
59960;SDS011;55902;-37.980;-63.602;2022-10-17T02:17:35;4.60;;;1.70;;
59960;SDS011;55902;-37.980;-63.602;2022-10-17T02:20:25;5.35;;;1.55;;
59960;SDS011;55902;-37.980;-63.602;2022-10-17T02:23:35;6.40;;;1.70;;
59960;SDS011;55902;-37.980;-63.602;2022-10-17T02:26:36;5.93;;;1.90;;
59960;SDS011;55902;-37.980;-63.602;2022-10-17T02:29:18;3.45;;;1.50;;
59960;SDS011;55902;-37.980;-63.602;2022-10-17T02:31:52;6.70;;;1.90;;
59960;SDS011;55902;-37.980;-63.602;2022-10-17T02:34:29;5.50;;;1.50;;
59960;SDS011;55902;-37.980;-63.602;2022-10-17T02:37:04;6.05;;;2.05;;
59960;SDS011;55902;-37.980;-63.602;2022-10-17T02:39:34;5.70;;;1.83;;
59960;SDS011;55902;-37.980;-63.602;2022-10-17T02:42:05;6.85;;;1.90;;
59960;SDS011;55902;-37.980;-63.602;2022-10-17T02:44:39;7.00;;;1.98;;
59960;SDS011;55902;-37.980;-63.602;2022-10-17T02:47:10;5.38;;;1.70;;
59960;SDS011;55902;-37.980;-63.602;2022-10-17T02:49:45;5.82;;;1.90;;
59960;SDS011;55902;-37.980;-63.602;2022-10-17T02:52:28;6.25;;;1.90;;
59960;SDS011;55902;-37.980;-63.602;2022-10-17T02:55:18;4.55;;;2.00;;
59960;SDS011;55902;-37.980;-63.602;2022-10-17T02:57:50;6.25;;;2.00;;
59960;SDS011;55902;-37.980;-63.602;2022-10-17T03:00:23;4.68;;;1.70;;
59960;SDS011;55902;-37.980;-63.602;2022-10-17T03:02:52;3.58;;;1.80;;
59960;SDS011;55902;-37.980;-63.602;2022-10-17T03:05:20;4.82;;;2.00;;
59960;SDS011;55902;-37.980;-63.602;2022-10-17T03:07:49;4.70;;;2.40;;
59960;SDS011;55902;-37.980;-63.602;2022-10-17T03:10:17;5.22;;;1.92;;
59960;SDS011;55902;-37.980;-63.602;2022-10-17T03:12:44;4.68;;;1.85;;
59960;SDS011;55902;-37.980;-63.602;2022-10-17T03:15:11;3.88;;;1.75;;
59960;SDS011;55902;-37.980;-63.602;2022-10-17T03:17:38;6.95;;;2.45;;
59960;SDS011;55902;-37.980;-63.602;2022-10-17T03:20:05;5.43;;;2.05;;
59960;SDS011;55902;-37.980;-63.602;2022-10-17T03:22:32;6.63;;;2.00;;
59960;SDS011;55902;-37.980;-63.602;2022-10-17T03:24:59;5.97;;;1.75;;
59960;SDS011;55902;-37.980;-63.602;2022-10-17T03:27:26;4.72;;;1.90;;
59960;SDS011;55902;-37.980;-63.602;2022-10-17T03:29:53;7.70;;;1.88;;
59960;SDS011;55902;-37.980;-63.602;2022-10-17T03:32:20;3.90;;;2.00;;
59960;SDS011;55902;-37.980;-63.602;2022-10-17T03:34:48;5.05;;;1.95;;
59960;SDS011;55902;-37.980;-63.602;2022-10-17T03:37:15;4.82;;;1.83;;
59960;SDS011;55902;-37.980;-63.602;2022-10-17T03:39:41;3.20;;;1.90;;
59960;SDS011;55902;-37.980;-63.602;2022-10-17T03:42:08;7.22;;;1.80;;
59960;SDS011;55902;-37.980;-63.602;2022-10-17T03:44:35;5.53;;;2.08;;
59960;SDS011;55902;-37.980;-63.602;2022-10-17T03:47:02;6.07;;;2.00;;
59960;SDS011;55902;-37.980;-63.602;2022-10-17T03:49:29;6.35;;;1.90;;
59960;SDS011;55902;-37.980;-63.602;2022-10-17T03:51:56;5.47;;;1.80;;
59960;SDS011;55902;-37.980;-63.602;2022-10-17T03:54:22;6.88;;;1.92;;
59960;SDS011;55902;-37.980;-63.602;2022-10-17T03:56:49;4.93;;;1.92;;
59960;SDS011;55902;-37.980;-63.602;2022-10-17T03:59:16;6.03;;;2.00;;
59960;SDS011;55902;-37.980;-63.602;2022-10-17T04:01:43;5.50;;;2.10;;
59960;SDS011;55902;-37.980;-63.602;2022-10-17T04:04:10;6.80;;;1.90;;
59960;SDS011;55902;-37.980;-63.602;2022-10-17T04:06:37;6.32;;;1.90;;
59960;SDS011;55902;-37.980;-63.602;2022-10-17T04:09:04;5.07;;;2.13;;
59960;SDS011;55902;-37.980;-63.602;2022-10-17T04:11:32;5.00;;;1.90;;
59960;SDS011;55902;-37.980;-63.602;2022-10-17T04:13:59;5.43;;;1.90;;
59960;SDS011;55902;-37.980;-63.602;2022-10-17T04:16:26;6.10;;;2.20;;
59960;SDS011;55902;-37.980;-63.602;2022-10-17T04:18:54;6.20;;;1.98;;
59960;SDS011;55902;-37.980;-63.602;2022-10-17T04:21:23;5.32;;;1.80;;
59960;SDS011;55902;-37.980;-63.602;2022-10-17T04:23:58;5.35;;;1.90;;
59960;SDS011;55902;-37.980;-63.602;2022-10-17T04:26:25;5.95;;;1.95;;
59960;SDS011;55902;-37.980;-63.602;2022-10-17T04:28:52;3.78;;;2.00;;
59960;SDS011;55902;-37.980;-63.602;2022-10-17T04:31:19;6.50;;;2.10;;
59960;SDS011;55902;-37.980;-63.602;2022-10-17T04:33:47;3.63;;;1.70;;
59960;SDS011;55902;-37.980;-63.602;2022-10-17T04:36:18;6.90;;;2.00;;
59960;SDS011;55902;-37.980;-63.602;2022-10-17T04:38:47;6.88;;;2.10;;
59960;SDS011;55902;-37.980;-63.602;2022-10-17T04:41:15;5.63;;;2.03;;
59960;SDS011;55902;-37.980;-63.602;2022-10-17T04:43:43;4.38;;;1.73;;
59960;SDS011;55902;-37.980;-63.602;2022-10-17T04:46:11;3.83;;;1.90;;
59960;SDS011;55902;-37.980;-63.602;2022-10-17T04:48:39;5.45;;;2.00;;
59960;SDS011;55902;-37.980;-63.602;2022-10-17T04:51:09;4.88;;;2.22;;
59960;SDS011;55902;-37.980;-63.602;2022-10-17T04:53:37;6.22;;;1.77;;
59960;SDS011;55902;-37.980;-63.602;2022-10-17T04:56:09;7.25;;;2.50;;
59960;SDS011;55902;-37.980;-63.602;2022-10-17T04:58:43;4.00;;;1.83;;
59960;SDS011;55902;-37.980;-63.602;2022-10-17T05:01:11;4.75;;;1.88;;
59960;SDS011;55902;-37.980;-63.602;2022-10-17T05:03:40;4.70;;;1.95;;
59960;SDS011;55902;-37.980;-63.602;2022-10-17T05:06:08;7.68;;;2.00;;
59960;SDS011;55902;-37.980;-63.602;2022-10-17T05:08:37;5.43;;;1.80;;
59960;SDS011;55902;-37.980;-63.602;2022-10-17T05:11:07;6.22;;;1.80;;
59960;SDS011;55902;-37.980;-63.602;2022-10-17T05:13:51;5.20;;;2.00;;
59960;SDS011;55902;-37.980;-63.602;2022-10-17T05:23:05;4.03;;;1.88;;
59960;SDS011;55902;-37.980;-63.602;2022-10-17T05:33:16;5.53;;;1.92;;
59960;SDS011;55902;-37.980;-63.602;2022-10-17T05:35:43;6.43;;;2.50;;
59960;SDS011;55902;-37.980;-63.602;2022-10-17T05:38:10;4.07;;;1.73;;
59960;SDS011;55902;-37.980;-63.602;2022-10-17T05:40:37;7.22;;;2.00;;
59960;SDS011;55902;-37.980;-63.602;2022-10-17T05:43:04;7.03;;;2.03;;
59960;SDS011;55902;-37.980;-63.602;2022-10-17T05:45:31;6.90;;;2.00;;
59960;SDS011;55902;-37.980;-63.602;2022-10-17T05:47:57;3.70;;;1.70;;
59960;SDS011;55902;-37.980;-63.602;2022-10-17T05:50:24;3.88;;;1.90;;
59960;SDS011;55902;-37.980;-63.602;2022-10-17T05:52:52;3.47;;;2.15;;
59960;SDS011;55902;-37.980;-63.602;2022-10-17T05:55:19;3.45;;;1.90;;
59960;SDS011;55902;-37.980;-63.602;2022-10-17T05:57:47;4.15;;;1.75;;
59960;SDS011;55902;-37.980;-63.602;2022-10-17T06:00:15;4.40;;;2.10;;
59960;SDS011;55902;-37.980;-63.602;2022-10-17T06:02:42;5.65;;;2.08;;
59960;SDS011;55902;-37.980;-63.602;2022-10-17T06:05:12;6.63;;;2.33;;
59960;SDS011;55902;-37.980;-63.602;2022-10-17T06:07:40;5.78;;;1.80;;
59960;SDS011;55902;-37.980;-63.602;2022-10-17T06:10:07;4.28;;;2.08;;
59960;SDS011;55902;-37.980;-63.602;2022-10-17T06:12:36;8.05;;;1.92;;
59960;SDS011;55902;-37.980;-63.602;2022-10-17T06:15:04;4.32;;;2.13;;
59960;SDS011;55902;-37.980;-63.602;2022-10-17T06:17:31;4.38;;;1.80;;
59960;SDS011;55902;-37.980;-63.602;2022-10-17T06:19:58;5.55;;;2.08;;
59960;SDS011;55902;-37.980;-63.602;2022-10-17T06:22:24;4.35;;;1.85;;
59960;SDS011;55902;-37.980;-63.602;2022-10-17T06:24:51;4.35;;;1.95;;
59960;SDS011;55902;-37.980;-63.602;2022-10-17T06:27:19;5.35;;;1.88;;
59960;SDS011;55902;-37.980;-63.602;2022-10-17T06:29:46;5.80;;;2.10;;
59960;SDS011;55902;-37.980;-63.602;2022-10-17T06:32:15;3.63;;;2.10;;
59960;SDS011;55902;-37.980;-63.602;2022-10-17T06:34:42;5.28;;;2.20;;
59960;SDS011;55902;-37.980;-63.602;2022-10-17T06:37:09;3.65;;;2.10;;
59960;SDS011;55902;-37.980;-63.602;2022-10-17T06:39:36;4.43;;;2.10;;
59960;SDS011;55902;-37.980;-63.602;2022-10-17T06:42:03;4.70;;;1.90;;
59960;SDS011;55902;-37.980;-63.602;2022-10-17T06:44:30;3.00;;;1.92;;
59960;SDS011;55902;-37.980;-63.602;2022-10-17T06:46:57;5.47;;;1.90;;
59960;SDS011;55902;-37.980;-63.602;2022-10-17T06:49:25;7.20;;;2.00;;
59960;SDS011;55902;-37.980;-63.602;2022-10-17T06:51:53;4.97;;;1.90;;
59960;SDS011;55902;-37.980;-63.602;2022-10-17T06:54:20;4.57;;;2.05;;
59960;SDS011;55902;-37.980;-63.602;2022-10-17T06:56:46;4.88;;;2.20;;
59960;SDS011;55902;-37.980;-63.602;2022-10-17T06:59:13;5.53;;;2.00;;
59960;SDS011;55902;-37.980;-63.602;2022-10-17T07:01:40;4.40;;;2.00;;
59960;SDS011;55902;-37.980;-63.602;2022-10-17T07:04:07;6.00;;;2.20;;
59960;SDS011;55902;-37.980;-63.602;2022-10-17T07:06:34;4.05;;;1.85;;
59960;SDS011;55902;-37.980;-63.602;2022-10-17T07:09:02;3.92;;;1.90;;
59960;SDS011;55902;-37.980;-63.602;2022-10-17T07:11:31;4.28;;;1.90;;
59960;SDS011;55902;-37.980;-63.602;2022-10-17T07:14:00;4.70;;;2.10;;
59960;SDS011;55902;-37.980;-63.602;2022-10-17T07:16:27;6.15;;;2.20;;
59960;SDS011;55902;-37.980;-63.602;2022-10-17T07:18:54;5.55;;;2.08;;
59960;SDS011;55902;-37.980;-63.602;2022-10-17T07:21:21;6.07;;;1.95;;
59960;SDS011;55902;-37.980;-63.602;2022-10-17T07:23:48;4.28;;;2.03;;
59960;SDS011;55902;-37.980;-63.602;2022-10-17T07:26:16;6.25;;;2.28;;
59960;SDS011;55902;-37.980;-63.602;2022-10-17T07:28:44;3.83;;;1.90;;
59960;SDS011;55902;-37.980;-63.602;2022-10-17T07:31:13;3.17;;;1.90;;
59960;SDS011;55902;-37.980;-63.602;2022-10-17T07:33:42;3.60;;;2.10;;
59960;SDS011;55902;-37.980;-63.602;2022-10-17T07:36:10;4.78;;;2.25;;
59960;SDS011;55902;-37.980;-63.602;2022-10-17T07:38:37;4.82;;;1.80;;
59960;SDS011;55902;-37.980;-63.602;2022-10-17T07:41:06;3.42;;;2.00;;
59960;SDS011;55902;-37.980;-63.602;2022-10-17T07:43:34;9.35;;;2.15;;
59960;SDS011;55902;-37.980;-63.602;2022-10-17T07:46:01;5.28;;;2.10;;
59960;SDS011;55902;-37.980;-63.602;2022-10-17T07:48:30;4.00;;;1.83;;
59960;SDS011;55902;-37.980;-63.602;2022-10-17T07:50:59;5.20;;;2.17;;
59960;SDS011;55902;-37.980;-63.602;2022-10-17T07:53:31;3.03;;;1.90;;
59960;SDS011;55902;-37.980;-63.602;2022-10-17T07:56:02;5.78;;;2.40;;
59960;SDS011;55902;-37.980;-63.602;2022-10-17T07:58:31;4.80;;;2.10;;
59960;SDS011;55902;-37.980;-63.602;2022-10-17T08:01:01;4.55;;;2.20;;
59960;SDS011;55902;-37.980;-63.602;2022-10-17T08:03:29;4.90;;;2.15;;
59960;SDS011;55902;-37.980;-63.602;2022-10-17T08:05:56;3.70;;;2.10;;
59960;SDS011;55902;-37.980;-63.602;2022-10-17T08:08:24;4.22;;;2.10;;
59960;SDS011;55902;-37.980;-63.602;2022-10-17T08:10:52;4.85;;;2.33;;
59960;SDS011;55902;-37.980;-63.602;2022-10-17T08:13:20;5.75;;;2.00;;
59960;SDS011;55902;-37.980;-63.602;2022-10-17T08:15:48;3.10;;;2.10;;
59960;SDS011;55902;-37.980;-63.602;2022-10-17T08:18:15;4.95;;;2.10;;
59960;SDS011;55902;-37.980;-63.602;2022-10-17T08:20:42;3.83;;;2.00;;
59960;SDS011;55902;-37.980;-63.602;2022-10-17T08:23:09;2.55;;;2.00;;
59960;SDS011;55902;-37.980;-63.602;2022-10-17T08:25:37;4.70;;;2.22;;
59960;SDS011;55902;-37.980;-63.602;2022-10-17T08:28:04;5.03;;;2.33;;
59960;SDS011;55902;-37.980;-63.602;2022-10-17T08:30:32;5.13;;;2.00;;
59960;SDS011;55902;-37.980;-63.602;2022-10-17T08:32:59;4.55;;;2.13;;
59960;SDS011;55902;-37.980;-63.602;2022-10-17T08:35:26;3.85;;;2.17;;
59960;SDS011;55902;-37.980;-63.602;2022-10-17T08:37:53;3.70;;;2.00;;
59960;SDS011;55902;-37.980;-63.602;2022-10-17T08:40:22;6.38;;;2.40;;
59960;SDS011;55902;-37.980;-63.602;2022-10-17T08:43:01;7.13;;;2.10;;
59960;SDS011;55902;-37.980;-63.602;2022-10-17T08:45:39;5.63;;;2.20;;
59960;SDS011;55902;-37.980;-63.602;2022-10-17T08:48:12;2.72;;;1.90;;
59960;SDS011;55902;-37.980;-63.602;2022-10-17T08:56:09;2.75;;;1.90;;
59960;SDS011;55902;-37.980;-63.602;2022-10-17T08:58:42;5.00;;;1.95;;
59960;SDS011;55902;-37.980;-63.602;2022-10-17T09:01:31;3.83;;;2.25;;
59960;SDS011;55902;-37.980;-63.602;2022-10-17T09:12:15;6.45;;;2.20;;
59960;SDS011;55902;-37.980;-63.602;2022-10-17T09:20:31;4.68;;;2.10;;
59960;SDS011;55902;-37.980;-63.602;2022-10-17T09:23:05;4.47;;;2.15;;
59960;SDS011;55902;-37.980;-63.602;2022-10-17T09:25:44;5.03;;;2.10;;
59960;SDS011;55902;-37.980;-63.602;2022-10-17T09:28:26;3.78;;;2.10;;
59960;SDS011;55902;-37.980;-63.602;2022-10-17T09:31:02;5.03;;;2.22;;
59960;SDS011;55902;-37.980;-63.602;2022-10-17T09:34:07;6.25;;;2.10;;
59960;SDS011;55902;-37.980;-63.602;2022-10-17T09:36:32;3.47;;;1.92;;
59960;SDS011;55902;-37.980;-63.602;2022-10-17T09:39:11;6.88;;;2.33;;
59960;SDS011;55902;-37.980;-63.602;2022-10-17T09:41:43;5.43;;;2.08;;
59960;SDS011;55902;-37.980;-63.602;2022-10-17T09:44:22;3.42;;;1.80;;
59960;SDS011;55902;-37.980;-63.602;2022-10-17T09:49:32;6.65;;;2.08;;
59960;SDS011;55902;-37.980;-63.602;2022-10-17T09:52:21;5.68;;;2.00;;
59960;SDS011;55902;-37.980;-63.602;2022-10-17T10:00:38;3.28;;;1.90;;
59960;SDS011;55902;-37.980;-63.602;2022-10-17T10:05:59;5.82;;;2.20;;
59960;SDS011;55902;-37.980;-63.602;2022-10-17T10:08:52;4.88;;;1.80;;
59960;SDS011;55902;-37.980;-63.602;2022-10-17T10:11:24;3.38;;;2.00;;
59960;SDS011;55902;-37.980;-63.602;2022-10-17T10:24:13;4.40;;;1.75;;
59960;SDS011;55902;-37.980;-63.602;2022-10-17T10:26:44;5.00;;;2.08;;
59960;SDS011;55902;-37.980;-63.602;2022-10-17T10:32:28;3.15;;;1.80;;
59960;SDS011;55902;-37.980;-63.602;2022-10-17T10:37:46;5.47;;;1.90;;
59960;SDS011;55902;-37.980;-63.602;2022-10-17T10:45:55;3.63;;;2.13;;
59960;SDS011;55902;-37.980;-63.602;2022-10-17T10:53:29;4.68;;;2.08;;
59960;SDS011;55902;-37.980;-63.602;2022-10-17T10:56:24;4.63;;;1.83;;
59960;SDS011;55902;-37.980;-63.602;2022-10-17T11:01:42;3.22;;;1.60;;
59960;SDS011;55902;-37.980;-63.602;2022-10-17T11:07:13;5.00;;;1.70;;
59960;SDS011;55902;-37.980;-63.602;2022-10-17T11:18:29;4.25;;;1.90;;
59960;SDS011;55902;-37.980;-63.602;2022-10-17T11:21:42;4.95;;;2.00;;
59960;SDS011;55902;-37.980;-63.602;2022-10-17T11:27:02;5.65;;;1.90;;
59960;SDS011;55902;-37.980;-63.602;2022-10-17T11:29:32;5.18;;;1.50;;
59960;SDS011;55902;-37.980;-63.602;2022-10-17T11:32:05;4.63;;;1.80;;
59960;SDS011;55902;-37.980;-63.602;2022-10-17T11:37:35;4.43;;;1.80;;
59960;SDS011;55902;-37.980;-63.602;2022-10-17T11:40:14;5.13;;;1.65;;
59960;SDS011;55902;-37.980;-63.602;2022-10-17T11:43:04;5.15;;;1.83;;
59960;SDS011;55902;-37.980;-63.602;2022-10-17T11:45:44;6.28;;;2.05;;
59960;SDS011;55902;-37.980;-63.602;2022-10-17T11:48:19;3.90;;;1.90;;
59960;SDS011;55902;-37.980;-63.602;2022-10-17T11:50:54;3.33;;;1.65;;
59960;SDS011;55902;-37.980;-63.602;2022-10-17T11:53:33;4.45;;;1.60;;
59960;SDS011;55902;-37.980;-63.602;2022-10-17T11:56:11;4.07;;;1.73;;
59960;SDS011;55902;-37.980;-63.602;2022-10-17T12:11:54;4.20;;;1.23;;
59960;SDS011;55902;-37.980;-63.602;2022-10-17T12:14:42;3.55;;;1.30;;
59960;SDS011;55902;-37.980;-63.602;2022-10-17T12:17:24;2.20;;;1.35;;
59960;SDS011;55902;-37.980;-63.602;2022-10-17T12:22:58;3.83;;;1.15;;
59960;SDS011;55902;-37.980;-63.602;2022-10-17T12:25:52;4.45;;;1.60;;
59960;SDS011;55902;-37.980;-63.602;2022-10-17T12:33:59;5.72;;;1.27;;
59960;SDS011;55902;-37.980;-63.602;2022-10-17T12:36:37;5.63;;;1.40;;
59960;SDS011;55902;-37.980;-63.602;2022-10-17T12:41:55;3.20;;;1.13;;
59960;SDS011;55902;-37.980;-63.602;2022-10-17T12:57:56;4.50;;;1.20;;
59960;SDS011;55902;-37.980;-63.602;2022-10-17T13:00:48;4.50;;;1.60;;
59960;SDS011;55902;-37.980;-63.602;2022-10-17T13:03:47;2.63;;;1.00;;
59960;SDS011;55902;-37.980;-63.602;2022-10-17T13:06:26;4.38;;;1.20;;
59960;SDS011;55902;-37.980;-63.602;2022-10-17T13:08:58;6.07;;;2.20;;
59960;SDS011;55902;-37.980;-63.602;2022-10-17T13:11:31;5.75;;;1.40;;
59960;SDS011;55902;-37.980;-63.602;2022-10-17T13:14:09;6.25;;;1.83;;
59960;SDS011;55902;-37.980;-63.602;2022-10-17T13:16:39;7.18;;;1.63;;
59960;SDS011;55902;-37.980;-63.602;2022-10-17T13:19:42;6.07;;;1.15;;
59960;SDS011;55902;-37.980;-63.602;2022-10-17T13:22:12;3.95;;;1.10;;
59960;SDS011;55902;-37.980;-63.602;2022-10-17T13:24:48;4.28;;;1.10;;
59960;SDS011;55902;-37.980;-63.602;2022-10-17T13:27:23;4.15;;;1.27;;
59960;SDS011;55902;-37.980;-63.602;2022-10-17T13:29:55;3.25;;;1.10;;
59960;SDS011;55902;-37.980;-63.602;2022-10-17T13:32:25;3.13;;;1.35;;
59960;SDS011;55902;-37.980;-63.602;2022-10-17T13:35:08;5.40;;;1.20;;
59960;SDS011;55902;-37.980;-63.602;2022-10-17T13:37:47;8.48;;;1.23;;
59960;SDS011;55902;-37.980;-63.602;2022-10-17T13:40:19;6.55;;;1.55;;
59960;SDS011;55902;-37.980;-63.602;2022-10-17T13:42:50;5.80;;;1.50;;
59960;SDS011;55902;-37.980;-63.602;2022-10-17T13:45:27;4.15;;;1.55;;
59960;SDS011;55902;-37.980;-63.602;2022-10-17T13:47:58;5.35;;;1.45;;
59960;SDS011;55902;-37.980;-63.602;2022-10-17T13:50:31;5.57;;;1.20;;
59960;SDS011;55902;-37.980;-63.602;2022-10-17T13:53:11;10.40;;;2.47;;
59960;SDS011;55902;-37.980;-63.602;2022-10-17T13:55:50;3.38;;;1.08;;
59960;SDS011;55902;-37.980;-63.602;2022-10-17T13:58:28;4.55;;;1.38;;
59960;SDS011;55902;-37.980;-63.602;2022-10-17T14:00:59;8.30;;;1.25;;
59960;SDS011;55902;-37.980;-63.602;2022-10-17T14:03:30;4.03;;;1.23;;
59960;SDS011;55902;-37.980;-63.602;2022-10-17T14:06:06;4.22;;;1.33;;
59960;SDS011;55902;-37.980;-63.602;2022-10-17T14:08:50;4.37;;;1.37;;
59960;SDS011;55902;-37.980;-63.602;2022-10-17T14:11:32;4.45;;;1.35;;
59960;SDS011;55902;-37.980;-63.602;2022-10-17T14:14:05;11.95;;;1.55;;
59960;SDS011;55902;-37.980;-63.602;2022-10-17T14:16:43;5.07;;;1.40;;
59960;SDS011;55902;-37.980;-63.602;2022-10-17T14:19:30;7.00;;;1.50;;
59960;SDS011;55902;-37.980;-63.602;2022-10-17T14:22:22;7.35;;;1.58;;
59960;SDS011;55902;-37.980;-63.602;2022-10-17T14:24:52;6.72;;;1.30;;
59960;SDS011;55902;-37.980;-63.602;2022-10-17T14:32:58;3.60;;;1.27;;
59960;SDS011;55902;-37.980;-63.602;2022-10-17T14:35:28;2.95;;;1.48;;
59960;SDS011;55902;-37.980;-63.602;2022-10-17T14:37:59;4.47;;;1.40;;
59960;SDS011;55902;-37.980;-63.602;2022-10-17T14:40:29;8.43;;;1.50;;
59960;SDS011;55902;-37.980;-63.602;2022-10-17T14:42:59;4.50;;;1.40;;
59960;SDS011;55902;-37.980;-63.602;2022-10-17T14:45:29;2.55;;;1.20;;
59960;SDS011;55902;-37.980;-63.602;2022-10-17T14:48:06;5.65;;;1.67;;
59960;SDS011;55902;-37.980;-63.602;2022-10-17T14:50:39;7.35;;;1.42;;
59960;SDS011;55902;-37.980;-63.602;2022-10-17T14:55:38;7.60;;;1.40;;
59960;SDS011;55902;-37.980;-63.602;2022-10-17T14:58:28;8.55;;;1.40;;
59960;SDS011;55902;-37.980;-63.602;2022-10-17T15:00:58;6.88;;;1.60;;
59960;SDS011;55902;-37.980;-63.602;2022-10-17T15:03:26;4.60;;;1.10;;
59960;SDS011;55902;-37.980;-63.602;2022-10-17T15:05:53;4.47;;;1.20;;
59960;SDS011;55902;-37.980;-63.602;2022-10-17T15:08:21;3.03;;;1.20;;
59960;SDS011;55902;-37.980;-63.602;2022-10-17T15:10:51;4.90;;;1.23;;
59960;SDS011;55902;-37.980;-63.602;2022-10-17T15:13:42;5.40;;;1.27;;
59960;SDS011;55902;-37.980;-63.602;2022-10-17T15:16:32;5.15;;;1.23;;
59960;SDS011;55902;-37.980;-63.602;2022-10-17T15:19:04;5.88;;;0.90;;
59960;SDS011;55902;-37.980;-63.602;2022-10-17T15:21:58;5.65;;;1.13;;
59960;SDS011;55902;-37.980;-63.602;2022-10-17T15:24:32;5.00;;;1.10;;
59960;SDS011;55902;-37.980;-63.602;2022-10-17T15:26:59;9.98;;;1.13;;
59960;SDS011;55902;-37.980;-63.602;2022-10-17T15:29:26;5.70;;;1.10;;
59960;SDS011;55902;-37.980;-63.602;2022-10-17T15:31:55;5.72;;;1.00;;
59960;SDS011;55902;-37.980;-63.602;2022-10-17T15:34:25;3.60;;;0.80;;
59960;SDS011;55902;-37.980;-63.602;2022-10-17T15:37:03;9.32;;;1.33;;
59960;SDS011;55902;-37.980;-63.602;2022-10-17T15:39:49;3.88;;;1.00;;
59960;SDS011;55902;-37.980;-63.602;2022-10-17T15:42:21;5.63;;;1.10;;
59960;SDS011;55902;-37.980;-63.602;2022-10-17T15:44:53;8.82;;;1.15;;
59960;SDS011;55902;-37.980;-63.602;2022-10-17T15:49:57;3.80;;;1.00;;
59960;SDS011;55902;-37.980;-63.602;2022-10-17T15:52:25;4.47;;;0.93;;
59960;SDS011;55902;-37.980;-63.602;2022-10-17T15:54:53;5.35;;;1.10;;
59960;SDS011;55902;-37.980;-63.602;2022-10-17T15:57:25;6.22;;;1.10;;
59960;SDS011;55902;-37.980;-63.602;2022-10-17T16:00:03;6.72;;;1.05;;
59960;SDS011;55902;-37.980;-63.602;2022-10-17T16:03:09;5.85;;;1.00;;
59960;SDS011;55902;-37.980;-63.602;2022-10-17T16:05:38;4.88;;;1.00;;
59960;SDS011;55902;-37.980;-63.602;2022-10-17T16:08:05;10.52;;;1.30;;
59960;SDS011;55902;-37.980;-63.602;2022-10-17T16:10:32;4.15;;;0.90;;
59960;SDS011;55902;-37.980;-63.602;2022-10-17T16:13:01;6.15;;;0.90;;
59960;SDS011;55902;-37.980;-63.602;2022-10-17T16:15:28;6.03;;;1.30;;
59960;SDS011;55902;-37.980;-63.602;2022-10-17T16:17:55;5.18;;;0.90;;
59960;SDS011;55902;-37.980;-63.602;2022-10-17T16:20:23;4.40;;;1.13;;
59960;SDS011;55902;-37.980;-63.602;2022-10-17T16:22:50;6.28;;;1.08;;
59960;SDS011;55902;-37.980;-63.602;2022-10-17T16:25:24;6.07;;;1.00;;
59960;SDS011;55902;-37.980;-63.602;2022-10-17T16:27:54;4.25;;;0.90;;
59960;SDS011;55902;-37.980;-63.602;2022-10-17T16:30:23;4.03;;;0.95;;
59960;SDS011;55902;-37.980;-63.602;2022-10-17T16:32:51;3.00;;;1.00;;
59960;SDS011;55902;-37.980;-63.602;2022-10-17T16:35:21;4.68;;;1.00;;
59960;SDS011;55902;-37.980;-63.602;2022-10-17T16:37:50;5.82;;;1.00;;
59960;SDS011;55902;-37.980;-63.602;2022-10-17T16:40:17;3.20;;;0.80;;
59960;SDS011;55902;-37.980;-63.602;2022-10-17T16:42:44;3.25;;;0.82;;
59960;SDS011;55902;-37.980;-63.602;2022-10-17T16:45:19;4.00;;;1.10;;
59960;SDS011;55902;-37.980;-63.602;2022-10-17T16:47:47;4.00;;;1.13;;
59960;SDS011;55902;-37.980;-63.602;2022-10-17T16:50:15;5.25;;;1.10;;
59960;SDS011;55902;-37.980;-63.602;2022-10-17T16:52:42;3.78;;;0.80;;
59960;SDS011;55902;-37.980;-63.602;2022-10-17T16:55:09;3.17;;;0.90;;
59960;SDS011;55902;-37.980;-63.602;2022-10-17T16:57:36;4.57;;;1.20;;
59960;SDS011;55902;-37.980;-63.602;2022-10-17T17:00:04;8.80;;;0.90;;
59960;SDS011;55902;-37.980;-63.602;2022-10-17T17:02:31;9.82;;;1.38;;
59960;SDS011;55902;-37.980;-63.602;2022-10-17T17:04:58;7.35;;;0.85;;
59960;SDS011;55902;-37.980;-63.602;2022-10-17T17:07:26;9.75;;;1.20;;
59960;SDS011;55902;-37.980;-63.602;2022-10-17T17:09:53;3.63;;;0.93;;
59960;SDS011;55902;-37.980;-63.602;2022-10-17T17:12:21;5.05;;;0.90;;
59960;SDS011;55902;-37.980;-63.602;2022-10-17T17:14:48;4.28;;;0.80;;
59960;SDS011;55902;-37.980;-63.602;2022-10-17T17:17:15;4.53;;;1.42;;
59960;SDS011;55902;-37.980;-63.602;2022-10-17T17:19:43;1.73;;;0.70;;
59960;SDS011;55902;-37.980;-63.602;2022-10-17T17:22:11;6.88;;;1.00;;
59960;SDS011;55902;-37.980;-63.602;2022-10-17T17:24:38;2.63;;;0.70;;
59960;SDS011;55902;-37.980;-63.602;2022-10-17T17:27:04;2.25;;;0.80;;